Time;durP1;ratioP1;P1;durP2;ratioP2;P2;SDS_P1;SDS_P2;PMS_P1;PMS_P2;Temp;Humidity;BMP_temperature;BMP_pressure;BME280_temperature;BME280_humidity;BME280_pressure;Samples;Min_cycle;Max_cycle;Signal;HPM_P1;HPM_P2
2021/09/29 00:01:03;;;;;;;;;;;;;;;7.26;96.12;101036.06;5020396;28;20373;-66
2021/09/29 00:03:29;;;;;;;;;;;;;;;7.26;95.63;101033.38;5017642;28;20341;-67
2021/09/29 00:05:54;;;;;;;;;;;;;;;7.24;95.60;101038.03;5013256;28;19935;-65
2021/09/29 00:08:20;;;;;;;;;;;;;;;7.20;94.94;101037.50;5045932;28;19928;-65
2021/09/29 00:10:45;;;;;;;;;;;;;;;7.17;95.68;101037.78;5031718;28;20035;-67
2021/09/29 00:13:11;;;;;;;;;;;;;;;7.11;94.23;101037.50;5034388;28;19935;-66
2021/09/29 00:15:37;;;;;;;;;;;;;;;7.03;94.64;101036.41;5017712;28;19936;-67
2021/09/29 00:18:02;;;;;;;;;;;;;;;6.91;93.83;101036.75;5056388;28;19963;-66
2021/09/29 00:20:30;;;;;;;;;;;;;;;6.78;94.97;101053.94;5047392;28;19928;-67
2021/09/29 00:22:56;;;;;;;;;;;;;;;6.69;94.93;101062.78;5047863;28;19955;-68
2021/09/29 00:25:21;;;;;;;;;;;;;;;6.67;96.01;101077.28;5052995;28;19913;-68
2021/09/29 00:27:47;;;;;;;;;;;;;;;6.65;97.03;101079.28;5022642;28;19916;-68
2021/09/29 00:30:13;;;;;;;;;;;;;;;6.69;97.78;101102.03;5034242;28;19917;-68
2021/09/29 00:32:41;;;;;;;;;;;;;;;6.72;98.29;101083.03;5047335;28;19964;-68
2021/09/29 00:35:07;;;;;;;;;;;;;;;6.71;97.65;101078.69;5030138;28;19923;-68
2021/09/29 00:37:35;;;;;;;;;;;;;;;6.70;97.50;101082.38;5046589;28;19917;-68
2021/09/29 00:40:02;;;;;;;;;;;;;;;6.71;97.75;101094.72;5012128;28;19962;-68
2021/09/29 00:42:28;;;;;;;;;;;;;;;6.71;97.53;101098.25;5052048;28;19929;-71
2021/09/29 00:44:53;;;;;;;;;;;;;;;6.69;97.90;101104.72;5053890;28;19925;-67
2021/09/29 00:47:19;;;;;;;;;;;;;;;6.69;97.88;101099.38;5015856;28;19917;-70
2021/09/29 00:49:44;;;;;;;;;;;;;;;6.64;97.77;101104.28;5016596;28;19968;-66
2021/09/29 00:52:10;;;;;;;;;;;;;;;6.58;97.10;101105.72;5055784;28;20262;-67
2021/09/29 00:54:35;;;;;;;;;;;;;;;6.48;96.06;101107.53;5014884;28;19948;-67
2021/09/29 00:57:01;;;;;;;;;;;;;;;6.38;96.44;101110.22;5012647;28;19967;-66
2021/09/29 00:59:27;;;;;;;;;;;;;;;6.28;97.12;101114.72;5039393;28;19924;-65
2021/09/29 01:01:52;;;;;;;;;;;;;;;6.22;97.71;101120.59;5023633;28;20003;-66
2021/09/29 01:04:19;;;;;;;;;;;;;;;6.22;98.38;101131.25;5020512;28;19929;-66
2021/09/29 01:07:03;;;;;;;;;;;;;;;6.26;99.38;101148.72;5014090;28;19917;-67
2021/09/29 01:09:29;;;;;;;;;;;;;;;6.32;100.00;101153.50;5037389;28;19920;-66
2021/09/29 01:12:20;;;;;;;;;;;;;;;6.39;100.00;101142.13;5018730;28;20424;-68
2021/09/29 01:14:49;;;;;;;;;;;;;;;6.50;100.00;101141.13;5003666;28;20427;-69
2021/09/29 01:17:15;;;;;;;;;;;;;;;6.55;100.00;101144.25;5027674;28;20340;-67
2021/09/29 01:19:52;;;;;;;;;;;;;;;6.55;100.00;101146.06;5015062;28;19920;-67
2021/09/29 01:22:37;;;;;;;;;;;;;;;6.50;99.53;101149.16;5027104;28;19986;-67
2021/09/29 01:25:03;;;;;;;;;;;;;;;6.38;98.21;101158.31;5027845;28;19948;-66
2021/09/29 01:27:30;;;;;;;;;;;;;;;6.27;98.54;101161.06;5011581;28;19951;-70
2021/09/29 01:29:56;;;;;;;;;;;;;;;6.15;98.45;101161.19;5015521;28;20063;-66
2021/09/29 01:32:22;;;;;;;;;;;;;;;6.03;97.81;101162.28;5043774;28;20003;-67
2021/09/29 01:34:48;;;;;;;;;;;;;;;5.96;98.42;101163.00;5029415;28;19951;-68
2021/09/29 01:37:14;;;;;;;;;;;;;;;5.91;98.72;101171.38;5045884;28;19924;-67
2021/09/29 01:39:40;;;;;;;;;;;;;;;5.88;99.52;101168.97;5014434;28;19913;-69
2021/09/29 01:42:06;;;;;;;;;;;;;;;5.88;99.95;101175.16;5038110;28;19916;-69
2021/09/29 01:44:32;;;;;;;;;;;;;;;5.91;100.00;101180.22;5034829;28;19939;-67
2021/09/29 01:46:58;;;;;;;;;;;;;;;5.98;100.00;101193.91;5043049;28;20202;-66
2021/09/29 01:49:44;;;;;;;;;;;;;;;6.05;100.00;101191.53;5015406;28;20345;-67
2021/09/29 01:52:10;;;;;;;;;;;;;;;6.16;100.00;101191.41;5043521;28;19957;-67
2021/09/29 01:54:36;;;;;;;;;;;;;;;6.25;100.00;101187.09;5015471;28;20318;-66
2021/09/29 01:57:02;;;;;;;;;;;;;;;6.32;100.00;101188.22;5010099;28;19917;-66
2021/09/29 01:59:27;;;;;;;;;;;;;;;6.35;100.00;101198.63;5011170;28;19912;-67
2021/09/29 02:01:53;;;;;;;;;;;;;;;6.32;100.00;101194.38;5014372;28;19921;-68
2021/09/29 02:04:19;;;;;;;;;;;;;;;6.30;100.00;101203.56;5013980;28;20301;-68
2021/09/29 02:06:45;;;;;;;;;;;;;;;6.23;99.72;101202.41;5020667;28;19995;-67
2021/09/29 02:09:13;;;;;;;;;;;;;;;6.11;97.99;101205.19;5046029;28;19917;-68
2021/09/29 02:11:39;;;;;;;;;;;;;;;5.99;98.17;101192.91;5016568;28;19959;-69
2021/09/29 02:14:05;;;;;;;;;;;;;;;5.86;97.46;101214.47;5045595;28;21872;-66
2021/09/29 02:16:31;;;;;;;;;;;;;;;5.75;97.40;101211.06;5030542;28;20105;-68
2021/09/29 02:18:57;;;;;;;;;;;;;;;5.68;98.32;101216.06;5023189;28;20034;-67
2021/09/29 02:21:22;;;;;;;;;;;;;;;5.57;98.33;101208.97;5021135;28;20342;-66
2021/09/29 02:23:48;;;;;;;;;;;;;;;5.48;98.37;101225.78;5056010;28;20155;-67
2021/09/29 02:26:13;;;;;;;;;;;;;;;5.41;99.34;101228.13;5031172;28;20313;-67
2021/09/29 02:28:39;;;;;;;;;;;;;;;5.38;99.84;101231.06;5014805;28;20301;-66
2021/09/29 02:31:05;;;;;;;;;;;;;;;5.36;99.73;101232.16;5044613;28;19916;-66
2021/09/29 02:33:30;;;;;;;;;;;;;;;5.33;100.00;101237.75;5017021;28;19925;-67
2021/09/29 02:35:56;;;;;;;;;;;;;;;5.26;99.29;101254.25;5019774;28;19917;-66
2021/09/29 02:38:21;;;;;;;;;;;;;;;5.19;99.02;101245.09;5047710;28;19963;-67
2021/09/29 02:40:47;;;;;;;;;;;;;;;5.15;99.70;101249.00;5014070;28;20282;-68
2021/09/29 02:43:12;;;;;;;;;;;;;;;5.11;99.78;101260.91;5027591;28;19960;-72
2021/09/29 02:45:38;;;;;;;;;;;;;;;5.09;99.36;101262.00;5031306;28;19921;-66
2021/09/29 02:48:06;;;;;;;;;;;;;;;5.02;99.42;101267.81;5041373;28;19920;-66
2021/09/29 02:50:31;;;;;;;;;;;;;;;4.99;99.40;101269.91;5022711;28;19932;-66
2021/09/29 02:52:57;;;;;;;;;;;;;;;4.96;99.16;101271.00;5052731;28;19970;-68
2021/09/29 02:55:22;;;;;;;;;;;;;;;4.92;99.63;101279.38;5050511;28;19921;-66
2021/09/29 02:57:48;;;;;;;;;;;;;;;4.89;99.97;101276.97;5016610;28;19925;-67
2021/09/29 03:00:13;;;;;;;;;;;;;;;4.87;99.96;101285.09;5053701;28;20285;-70
2021/09/29 03:02:39;;;;;;;;;;;;;;;4.80;99.66;101284.75;5016110;28;19920;-67
2021/09/29 03:05:05;;;;;;;;;;;;;;;4.78;99.83;101288.50;5056334;28;19920;-66
2021/09/29 03:07:30;;;;;;;;;;;;;;;4.73;99.43;101296.84;5059556;28;19928;-65
2021/09/29 03:09:56;;;;;;;;;;;;;;;4.73;100.00;101294.19;5020404;28;19917;-68
2021/09/29 03:12:21;;;;;;;;;;;;;;;4.71;99.58;101297.94;5049303;28;19999;-68
2021/09/29 03:14:49;;;;;;;;;;;;;;;4.66;100.00;101301.00;5020172;28;19916;-67
2021/09/29 03:17:15;;;;;;;;;;;;;;;4.68;100.00;101304.38;5018445;28;19916;-66
2021/09/29 03:19:41;;;;;;;;;;;;;;;4.68;100.00;101301.72;5015322;28;19920;-67
2021/09/29 03:22:06;;;;;;;;;;;;;;;4.69;100.00;101311.41;5017023;28;20297;-67
2021/09/29 03:24:32;;;;;;;;;;;;;;;4.66;100.00;101311.66;5032952;28;19918;-67
2021/09/29 03:26:57;;;;;;;;;;;;;;;4.62;100.00;101323.53;5036895;28;19917;-68
2021/09/29 03:29:23;;;;;;;;;;;;;;;4.59;100.00;101323.78;5019212;28;19917;-69
2021/09/29 03:31:48;;;;;;;;;;;;;;;4.55;99.29;101330.31;5022221;28;19987;-66
2021/09/29 03:34:14;;;;;;;;;;;;;;;4.54;100.00;101339.28;5011460;28;19917;-68
2021/09/29 03:36:39;;;;;;;;;;;;;;;4.52;100.00;101342.03;5012616;28;19920;-67
2021/09/29 03:39:05;;;;;;;;;;;;;;;4.49;100.00;101344.13;5045784;28;20445;-68
2021/09/29 03:41:31;;;;;;;;;;;;;;;4.46;100.00;101347.88;5049757;28;19926;-66
2021/09/29 03:43:56;;;;;;;;;;;;;;;4.47;100.00;101354.88;5020165;28;20007;-66
2021/09/29 03:46:24;;;;;;;;;;;;;;;4.48;100.00;101356.59;5014120;28;19919;-70
2021/09/29 03:48:50;;;;;;;;;;;;;;;4.43;100.00;101357.94;5037877;28;19925;-71
2021/09/29 03:51:15;;;;;;;;;;;;;;;4.39;100.00;101357.31;5021861;28;19920;-65
2021/09/29 03:53:41;;;;;;;;;;;;;;;4.37;100.00;101360.09;5017490;28;19924;-67
2021/09/29 03:56:07;;;;;;;;;;;;;;;4.37;100.00;101362.78;5019683;28;19919;-68
2021/09/29 03:58:32;;;;;;;;;;;;;;;4.40;100.00;101365.19;5014543;28;19975;-67
2021/09/29 04:00:58;;;;;;;;;;;;;;;4.47;100.00;101367.34;5011938;28;20484;-65
2021/09/29 04:03:23;;;;;;;;;;;;;;;4.47;100.00;101375.34;5037141;28;19917;-67
2021/09/29 04:05:49;;;;;;;;;;;;;;;4.44;100.00;101383.56;5020132;28;20364;-69
2021/09/29 04:08:15;;;;;;;;;;;;;;;4.40;100.00;101378.50;5056274;28;20400;-66
2021/09/29 04:10:40;;;;;;;;;;;;;;;4.36;99.94;101385.00;5028664;28;20273;-68
2021/09/29 04:13:06;;;;;;;;;;;;;;;4.31;100.00;101389.88;5010813;28;19921;-66
2021/09/29 04:15:32;;;;;;;;;;;;;;;4.23;99.53;101391.44;5017773;28;20030;-67
2021/09/29 04:17:58;;;;;;;;;;;;;;;4.17;100.00;101398.06;5015993;28;19928;-66
2021/09/29 04:20:23;;;;;;;;;;;;;;;4.16;100.00;101401.72;5050938;28;19912;-68
2021/09/29 04:22:49;;;;;;;;;;;;;;;4.14;100.00;101403.63;5017403;28;19955;-68
2021/09/29 04:25:14;;;;;;;;;;;;;;;4.04;100.00;101406.16;5042794;28;19913;-67
2021/09/29 04:27:40;;;;;;;;;;;;;;;3.98;100.00;101411.94;5019400;28;20007;-70
2021/09/29 04:30:06;;;;;;;;;;;;;;;3.97;100.00;101423.56;5013647;28;20370;-66
2021/09/29 04:32:31;;;;;;;;;;;;;;;3.94;100.00;101422.00;5043261;28;19923;-66
2021/09/29 04:34:57;;;;;;;;;;;;;;;3.96;100.00;101433.34;5013450;28;19923;-67
2021/09/29 04:37:22;;;;;;;;;;;;;;;4.00;100.00;101435.78;5018082;28;19920;-67
2021/09/29 04:39:48;;;;;;;;;;;;;;;4.04;100.00;101443.41;5009027;28;19932;-66
2021/09/29 04:42:13;;;;;;;;;;;;;;;4.06;100.00;101452.13;5049523;28;19993;-67
2021/09/29 04:44:39;;;;;;;;;;;;;;;4.13;100.00;101455.19;5018711;28;19921;-66
2021/09/29 04:47:05;;;;;;;;;;;;;;;4.27;100.00;101456.78;5023132;28;20440;-70
2021/09/29 04:49:30;;;;;;;;;;;;;;;4.36;100.00;101458.72;5020270;28;19913;-67
2021/09/29 04:51:56;;;;;;;;;;;;;;;4.43;100.00;101459.97;5015878;28;20269;-67
2021/09/29 04:54:21;;;;;;;;;;;;;;;4.51;100.00;101456.69;5008997;28;19969;-67
2021/09/29 04:56:47;;;;;;;;;;;;;;;4.59;100.00;101456.94;5007049;28;19924;-68
2021/09/29 04:59:13;;;;;;;;;;;;;;;4.67;100.00;101477.66;5015678;28;19921;-66
2021/09/29 05:01:42;;;;;;;;;;;;;;;4.69;100.00;101481.06;5028598;28;20219;-68
2021/09/29 05:04:07;;;;;;;;;;;;;;;4.71;100.00;101482.63;5010896;28;19970;-67
2021/09/29 05:06:34;;;;;;;;;;;;;;;4.67;100.00;101481.16;5048832;28;19920;-66
2021/09/29 05:08:59;;;;;;;;;;;;;;;4.60;100.00;101478.16;5014396;28;20421;-67
2021/09/29 05:11:28;;;;;;;;;;;;;;;4.53;100.00;101482.25;5016810;28;20015;-66
2021/09/29 05:13:55;;;;;;;;;;;;;;;4.48;100.00;101475.59;5018820;28;19925;-65
2021/09/29 05:16:21;;;;;;;;;;;;;;;4.37;100.00;101479.06;5017518;28;19924;-67
2021/09/29 05:18:46;;;;;;;;;;;;;;;4.31;100.00;101474.19;5021921;28;19917;-68
2021/09/29 05:21:12;;;;;;;;;;;;;;;4.22;100.00;101481.09;5015197;28;20239;-67
2021/09/29 05:23:37;;;;;;;;;;;;;;;4.11;100.00;101475.75;5020814;28;20403;-66
2021/09/29 05:26:03;;;;;;;;;;;;;;;4.02;100.00;101481.75;5023439;28;19920;-66
2021/09/29 05:28:32;;;;;;;;;;;;;;;3.93;100.00;101486.78;5018452;28;19952;-65
2021/09/29 05:30:58;;;;;;;;;;;;;;;3.88;100.00;101488.09;5014304;28;19916;-66
2021/09/29 05:33:23;;;;;;;;;;;;;;;3.82;100.00;101485.91;5013993;28;19924;-68
2021/09/29 05:35:49;;;;;;;;;;;;;;;3.85;100.00;101497.16;5015138;28;19990;-65
2021/09/29 05:38:14;;;;;;;;;;;;;;;3.82;100.00;101501.88;5021200;28;20205;-70
2021/09/29 05:40:40;;;;;;;;;;;;;;;3.78;100.00;101506.56;5048929;28;19963;-66
2021/09/29 05:43:06;;;;;;;;;;;;;;;3.75;100.00;101509.44;5015688;28;19975;-68
2021/09/29 05:45:31;;;;;;;;;;;;;;;3.81;100.00;101518.78;5042976;28;19943;-68
2021/09/29 05:47:57;;;;;;;;;;;;;;;3.93;100.00;101532.03;5056281;28;19962;-66
2021/09/29 05:50:22;;;;;;;;;;;;;;;4.10;100.00;101557.41;5029748;28;20277;-68
2021/09/29 05:52:48;;;;;;;;;;;;;;;4.23;100.00;101564.44;5044191;28;20404;-67
2021/09/29 05:55:13;;;;;;;;;;;;;;;4.40;100.00;101535.59;5051012;28;19920;-69
2021/09/29 05:57:39;;;;;;;;;;;;;;;4.52;100.00;101555.09;5012358;28;20401;-66
2021/09/29 06:00:05;;;;;;;;;;;;;;;4.49;100.00;101543.84;5050240;28;19928;-69
2021/09/29 06:02:30;;;;;;;;;;;;;;;4.35;100.00;101544.91;5051838;28;19955;-67
2021/09/29 06:04:56;;;;;;;;;;;;;;;4.27;100.00;101550.81;5053281;28;19952;-68
2021/09/29 06:07:21;;;;;;;;;;;;;;;4.17;100.00;101544.47;5014624;28;19931;-67
2021/09/29 06:09:47;;;;;;;;;;;;;;;4.08;100.00;101547.84;5047316;28;20353;-68
2021/09/29 06:12:13;;;;;;;;;;;;;;;3.97;100.00;101541.50;5016634;28;19917;-66
2021/09/29 06:14:40;;;;;;;;;;;;;;;3.90;100.00;101550.88;5026136;28;20285;-67
2021/09/29 06:17:41;;;;;;;;;;;;;;;3.81;100.00;101554.22;5048193;28;19916;-65
2021/09/29 06:19:57;;;;;;;;;;;;;;;3.74;100.00;101552.97;5024727;28;20004;-69
2021/09/29 06:22:23;;;;;;;;;;;;;;;3.72;100.00;101553.06;5045425;28;20003;-66
2021/09/29 06:24:49;;;;;;;;;;;;;;;3.70;100.00;101556.81;5054946;28;20432;-66
2021/09/29 06:27:14;;;;;;;;;;;;;;;3.71;100.00;101569.16;5018287;28;19917;-66
2021/09/29 06:29:40;;;;;;;;;;;;;;;3.66;100.00;101566.81;5018640;28;19916;-70
2021/09/29 06:32:06;;;;;;;;;;;;;;;3.66;100.00;101565.97;5047821;28;19940;-66
2021/09/29 06:34:31;;;;;;;;;;;;;;;3.65;100.00;101572.25;5006441;28;20266;-70
2021/09/29 06:36:57;;;;;;;;;;;;;;;3.68;100.00;101583.53;5034393;28;20039;-67
2021/09/29 06:39:22;;;;;;;;;;;;;;;3.79;100.00;101585.41;5016725;28;19962;-69
2021/09/29 06:41:48;;;;;;;;;;;;;;;4.03;100.00;101600.53;5013676;28;20381;-65
2021/09/29 06:44:14;;;;;;;;;;;;;;;4.29;100.00;101612.78;5021102;28;20015;-66
2021/09/29 06:46:40;;;;;;;;;;;;;;;4.54;100.00;101602.94;5016066;28;19944;-68
2021/09/29 06:49:05;;;;;;;;;;;;;;;4.80;100.00;101601.81;5014125;28;19951;-67
2021/09/29 06:51:31;;;;;;;;;;;;;;;5.02;100.00;101608.97;5026989;28;19929;-67
2021/09/29 06:53:57;;;;;;;;;;;;;;;5.26;100.00;101632.88;5017022;28;20306;-66
2021/09/29 06:56:22;;;;;;;;;;;;;;;5.43;100.00;101658.25;5014552;28;19987;-67
2021/09/29 06:58:51;;;;;;;;;;;;;;;5.45;100.00;101658.97;5012753;28;20038;-67
2021/09/29 07:01:17;;;;;;;;;;;;;;;5.41;100.00;101654.00;5028455;28;20015;-70
2021/09/29 07:03:43;;;;;;;;;;;;;;;5.39;100.00;101650.59;5021490;28;20050;-72
2021/09/29 07:06:09;;;;;;;;;;;;;;;5.39;100.00;101661.28;5035803;28;19939;-68
2021/09/29 07:08:34;;;;;;;;;;;;;;;5.42;100.00;101655.69;5016050;28;19917;-69
2021/09/29 07:11:00;;;;;;;;;;;;;;;5.37;100.00;101663.19;5017938;28;19917;-69
2021/09/29 07:13:26;;;;;;;;;;;;;;;5.30;100.00;101660.19;5015612;28;19940;-71
2021/09/29 07:15:51;;;;;;;;;;;;;;;5.25;100.00;101659.69;5012330;28;19994;-70
2021/09/29 07:18:17;;;;;;;;;;;;;;;5.21;100.00;101667.09;5024854;28;20274;-70
2021/09/29 07:20:43;;;;;;;;;;;;;;;5.25;100.00;101655.19;5017787;28;20281;-66
2021/09/29 07:23:09;;;;;;;;;;;;;;;5.34;100.00;101668.78;5024372;28;19935;-69
2021/09/29 07:25:35;;;;;;;;;;;;;;;5.85;100.00;101692.34;5020203;28;20003;-73
2021/09/29 07:28:01;;;;;;;;;;;;;;;7.53;96.34;101690.00;5049592;28;19943;-70
2021/09/29 07:30:27;;;;;;;;;;;;;;;8.13;94.05;101685.59;5036076;28;19917;-69
2021/09/29 07:32:53;;;;;;;;;;;;;;;8.77;92.97;101679.75;5009305;28;19916;-69
2021/09/29 07:35:19;;;;;;;;;;;;;;;10.12;87.78;101679.50;5016736;28;19925;-68
2021/09/29 07:37:44;;;;;;;;;;;;;;;11.09;85.62;101673.41;5020046;28;20285;-67
2021/09/29 07:40:13;;;;;;;;;;;;;;;11.96;84.11;101676.09;5016958;28;19920;-68
2021/09/29 07:42:39;;;;;;;;;;;;;;;12.65;83.57;101676.78;5017663;28;19963;-68
2021/09/29 07:45:06;;;;;;;;;;;;;;;13.31;82.96;101689.31;5018954;28;19917;-69
2021/09/29 07:47:32;;;;;;;;;;;;;;;13.45;82.69;101689.63;5010727;28;19917;-72
2021/09/29 07:49:58;;;;;;;;;;;;;;;12.40;86.03;101690.22;5019899;28;19963;-69
2021/09/29 07:52:23;;;;;;;;;;;;;;;11.07;88.45;101693.41;5020698;28;20354;-69
2021/09/29 07:54:50;;;;;;;;;;;;;;;10.07;88.89;101698.75;5015519;28;20455;-68
2021/09/29 07:57:15;;;;;;;;;;;;;;;9.82;89.61;101710.19;5048642;28;19999;-67
2021/09/29 07:59:41;;;;;;;;;;;;;;;10.96;85.90;101719.56;5025427;28;20365;-71
2021/09/29 08:02:09;;;;;;;;;;;;;;;9.90;88.46;101719.22;5012732;28;20251;-68
2021/09/29 08:04:34;;;;;;;;;;;;;;;10.91;87.08;101729.94;5021467;28;19928;-68
2021/09/29 08:07:00;;;;;;;;;;;;;;;13.13;82.65;101729.97;5021892;28;19928;-69
2021/09/29 08:09:27;;;;;;;;;;;;;;;14.37;80.62;101739.50;5028207;28;19917;-69
2021/09/29 08:11:53;;;;;;;;;;;;;;;14.13;80.83;101748.56;5021461;28;19916;-67
2021/09/29 08:14:18;;;;;;;;;;;;;;;12.23;85.64;101754.06;5013783;28;19951;-68
2021/09/29 08:16:45;;;;;;;;;;;;;;;11.09;85.27;101756.00;5016437;28;19964;-68
2021/09/29 08:19:14;;;;;;;;;;;;;;;12.12;83.75;101762.47;5046593;28;20025;-67
2021/09/29 08:21:40;;;;;;;;;;;;;;;11.88;83.66;101760.44;5017049;28;20400;-71
2021/09/29 08:24:09;;;;;;;;;;;;;;;13.58;79.08;101754.78;5032219;28;19916;-69
2021/09/29 08:36:55;;;;;;;;;;;;;;;17.03;71.60;101748.97;5023840;28;19917;-71
2021/09/29 08:39:43;;;;;;;;;;;;;;;17.52;71.12;101747.31;5009598;28;19921;-68
2021/09/29 08:42:24;;;;;;;;;;;;;;;18.13;70.67;101749.41;5021388;28;19990;-69
2021/09/29 08:45:03;;;;;;;;;;;;;;;18.83;69.48;101745.50;5017234;28;19917;-69
2021/09/29 08:47:35;;;;;;;;;;;;;;;16.97;72.68;101759.81;5023444;28;19920;-69
2021/09/29 09:16:58;;;;;;;;;;;;;;;19.60;55.35;101773.22;5035121;28;19939;-68
2021/09/29 09:19:29;;;;;;;;;;;;;;;19.82;52.94;101775.75;5018607;28;19921;-69
2021/09/29 09:21:59;;;;;;;;;;;;;;;19.64;51.79;101770.94;5027173;28;19932;-67
2021/09/29 09:24:26;;;;;;;;;;;;;;;19.51;50.62;101775.34;5031022;28;19968;-68
2021/09/29 09:26:58;;;;;;;;;;;;;;;18.91;50.02;101776.31;5019740;28;19917;-68
2021/09/29 09:29:23;;;;;;;;;;;;;;;18.87;49.77;101779.47;5030583;28;19917;-68
2021/09/29 09:31:49;;;;;;;;;;;;;;;19.35;49.48;101785.84;5015468;28;19936;-69
2021/09/29 09:34:14;;;;;;;;;;;;;;;19.60;48.80;101792.31;5021663;28;19917;-67
2021/09/29 09:36:41;;;;;;;;;;;;;;;19.48;48.32;101791.28;5013759;28;19921;-67
2021/09/29 09:39:08;;;;;;;;;;;;;;;19.58;48.08;101791.69;5010728;28;19929;-68
2021/09/29 09:41:34;;;;;;;;;;;;;;;19.79;48.11;101798.00;5033463;28;19917;-68
2021/09/29 09:44:01;;;;;;;;;;;;;;;20.01;47.42;101804.09;5055166;28;19917;-68
2021/09/29 09:46:27;;;;;;;;;;;;;;;20.14;46.76;101804.88;5016578;28;19925;-69
2021/09/29 09:49:03;;;;;;;;;;;;;;;19.81;47.06;101806.81;5030227;28;19924;-67
2021/09/29 09:51:30;;;;;;;;;;;;;;;18.88;49.02;101797.50;5016703;28;19916;-68
2021/09/29 09:53:56;;;;;;;;;;;;;;;17.52;52.71;101802.53;5020021;28;19913;-67
2021/09/29 09:56:29;;;;;;;;;;;;;;;18.02;51.83;101794.38;5017243;28;19919;-69
2021/09/29 09:58:56;;;;;;;;;;;;;;;16.37;55.45;101808.78;5013011;28;20455;-67
2021/09/29 10:01:23;;;;;;;;;;;;;;;15.47;59.30;101811.56;5022953;28;20034;-66
2021/09/29 10:03:49;;;;;;;;;;;;;;;16.89;56.40;101805.06;5024320;28;19936;-69
2021/09/29 10:06:15;;;;;;;;;;;;;;;16.61;57.11;101807.63;5009132;28;19917;-70
2021/09/29 10:08:44;;;;;;;;;;;;;;;16.22;58.33;101811.50;5026183;28;19939;-67
2021/09/29 10:11:23;;;;;;;;;;;;;;;17.95;54.17;101812.53;5013197;28;19960;-69
2021/09/29 10:27:07;;;;;;;;;;;;;;;20.88;42.55;101837.41;5032298;28;20008;-66
2021/09/29 10:29:38;;;;;;;;;;;;;;;20.62;41.64;101828.28;5014985;28;19944;-67
2021/09/29 10:32:13;;;;;;;;;;;;;;;20.47;40.65;101823.06;5026285;28;20012;-69
2021/09/29 10:34:49;;;;;;;;;;;;;;;20.40;40.44;101825.81;5020790;28;19917;-67
2021/09/29 11:07:30;;;;;;;;;;;;;;;14.96;56.13;101825.63;5036179;28;19920;-66
2021/09/29 11:28:58;;;;;;;;;;;;;;;11.63;70.26;101838.41;5043433;28;20414;-67
2021/09/29 11:31:36;;;;;;;;;;;;;;;11.81;70.25;101849.16;5040232;28;19916;-65
2021/09/29 12:09:36;;;;;;;;;;;;;;;14.15;63.77;101864.66;5037234;28;19921;-67
2021/09/29 12:12:21;;;;;;;;;;;;;;;14.04;63.30;101868.56;5024007;28;19936;-66
2021/09/29 12:14:50;;;;;;;;;;;;;;;14.03;63.68;101859.63;5019048;28;19912;-70
2021/09/29 12:17:20;;;;;;;;;;;;;;;14.05;63.01;101864.84;5027323;28;19924;-67
2021/09/29 12:19:51;;;;;;;;;;;;;;;13.99;62.25;101860.13;5023808;28;19955;-69
2021/09/29 12:22:18;;;;;;;;;;;;;;;13.70;61.80;101866.06;5022206;28;19913;-68
2021/09/29 12:24:49;;;;;;;;;;;;;;;13.61;61.87;101862.53;5009257;28;19913;-66
2021/09/29 12:27:22;;;;;;;;;;;;;;;13.59;62.61;101859.16;5011981;28;19924;-66
2021/09/29 12:29:51;;;;;;;;;;;;;;;13.49;62.70;101859.31;5016080;28;19971;-69
2021/09/29 12:33:06;;;;;;;;;;;;;;;13.47;62.47;101860.50;5017786;28;20366;-67
2021/09/29 12:37:39;;;;;;;;;;;;;;;13.55;62.27;101871.31;5046729;28;19947;-67
2021/09/29 12:40:05;;;;;;;;;;;;;;;13.47;62.09;101866.75;5028204;28;19935;-67
2021/09/29 12:42:31;;;;;;;;;;;;;;;13.45;61.72;101863.38;5018681;28;19923;-67
2021/09/29 12:44:57;;;;;;;;;;;;;;;13.41;61.52;101862.84;5015510;28;19917;-68
2021/09/29 12:47:25;;;;;;;;;;;;;;;13.70;61.53;101858.81;5020177;28;19966;-68
2021/09/29 12:49:51;;;;;;;;;;;;;;;14.08;60.59;101843.72;5013482;28;19956;-68
2021/09/29 12:52:29;;;;;;;;;;;;;;;14.45;59.80;101850.38;5009879;28;19948;-67
2021/09/29 12:54:56;;;;;;;;;;;;;;;14.37;59.11;101845.00;5014620;28;19967;-67
2021/09/29 12:57:24;;;;;;;;;;;;;;;14.54;58.81;101847.69;5026069;28;20015;-69
2021/09/29 12:59:50;;;;;;;;;;;;;;;14.67;58.50;101843.38;5034201;28;19979;-67
2021/09/29 13:02:15;;;;;;;;;;;;;;;14.85;57.91;101839.59;5022746;28;19924;-67
2021/09/29 13:04:41;;;;;;;;;;;;;;;14.92;57.25;101846.84;5016718;28;19913;-68
2021/09/29 13:07:07;;;;;;;;;;;;;;;14.75;57.06;101847.94;5023007;28;19924;-67
2021/09/29 13:09:35;;;;;;;;;;;;;;;14.72;56.79;101853.69;5026274;28;19913;-67
2021/09/29 13:12:01;;;;;;;;;;;;;;;14.67;56.58;101858.78;5013142;28;19966;-67
2021/09/29 13:14:26;;;;;;;;;;;;;;;14.74;56.70;101859.78;5019199;28;20383;-69
2021/09/29 13:16:52;;;;;;;;;;;;;;;14.85;56.91;101853.97;5014954;28;20116;-67
2021/09/29 13:19:26;;;;;;;;;;;;;;;14.85;57.30;101862.09;5015748;28;19916;-68
2021/09/29 13:21:55;;;;;;;;;;;;;;;14.78;57.27;101844.84;5039659;28;19916;-68
2021/09/29 13:37:45;;;;;;;;;;;;;;;14.36;55.83;101837.91;5050231;28;20316;-66
2021/09/29 13:40:10;;;;;;;;;;;;;;;14.39;56.21;101834.84;5029935;28;19921;-66
2021/09/29 13:42:36;;;;;;;;;;;;;;;14.41;56.26;101832.81;5032256;28;19916;-68
2021/09/29 13:45:06;;;;;;;;;;;;;;;14.38;56.78;101846.69;5021409;28;19924;-68
2021/09/29 13:47:31;;;;;;;;;;;;;;;14.30;56.81;101835.91;5049366;28;19963;-66
2021/09/29 13:49:57;;;;;;;;;;;;;;;14.25;57.54;101835.56;5013343;28;20262;-67
2021/09/29 13:52:25;;;;;;;;;;;;;;;14.19;57.96;101845.22;5015107;28;20662;-67
2021/09/29 13:54:54;;;;;;;;;;;;;;;14.25;58.06;101843.69;5018255;28;20015;-69
2021/09/29 13:57:58;;;;;;;;;;;;;;;14.37;58.02;101844.16;5047099;28;20015;-66
2021/09/29 14:00:23;;;;;;;;;;;;;;;14.52;58.05;101829.75;5044931;28;20003;-66
2021/09/29 14:30:29;;;;;;;;;;;;;;;15.01;55.76;101825.13;5046495;28;19913;-67
2021/09/29 14:33:16;;;;;;;;;;;;;;;14.92;55.82;101818.88;5017835;28;19928;-69
2021/09/29 14:35:42;;;;;;;;;;;;;;;14.86;56.04;101808.78;5025183;28;19967;-68
2021/09/29 14:38:10;;;;;;;;;;;;;;;14.93;56.09;101817.88;5024990;28;19925;-68
2021/09/29 14:40:36;;;;;;;;;;;;;;;14.94;56.17;101827.69;5024200;28;19944;-67
2021/09/29 14:43:01;;;;;;;;;;;;;;;14.84;56.38;101822.47;5018190;28;19970;-67
2021/09/29 14:45:27;;;;;;;;;;;;;;;14.65;56.89;101829.19;5021515;28;20358;-69
2021/09/29 14:47:52;;;;;;;;;;;;;;;14.42;57.19;101818.28;5025779;28;19959;-67
2021/09/29 14:50:26;;;;;;;;;;;;;;;14.24;57.88;101820.38;5016566;28;19917;-70
2021/09/29 14:52:54;;;;;;;;;;;;;;;14.05;58.84;101800.81;5033410;28;19923;-68
2021/09/29 14:55:20;;;;;;;;;;;;;;;13.95;58.78;101805.56;5013629;28;19943;-68
2021/09/29 14:57:47;;;;;;;;;;;;;;;13.93;58.88;101807.59;5023945;28;19916;-66
2021/09/29 15:00:16;;;;;;;;;;;;;;;13.90;58.88;101807.94;5023628;28;19951;-65
2021/09/29 15:02:47;;;;;;;;;;;;;;;13.86;59.04;101798.47;5033785;28;19920;-68
2021/09/29 15:05:13;;;;;;;;;;;;;;;13.86;58.99;101793.06;5034625;28;19948;-67
2021/09/29 15:07:38;;;;;;;;;;;;;;;13.84;58.43;101787.00;5012055;28;19948;-68
2021/09/29 15:10:05;;;;;;;;;;;;;;;13.87;58.40;101785.81;5033021;28;19943;-70
2021/09/29 15:12:34;;;;;;;;;;;;;;;13.90;58.61;101785.47;5052133;28;19916;-66
2021/09/29 15:17:40;;;;;;;;;;;;;;;13.78;58.71;101782.28;5041652;28;19917;-69
2021/09/29 15:25:30;;;;;;;;;;;;;;;13.67;61.21;101774.53;5051457;28;20372;-68
2021/09/29 15:59:32;;;;;;;;;;;;;;;12.89;64.11;101787.50;5048761;28;20370;-67
2021/09/29 16:02:24;;;;;;;;;;;;;;;12.81;65.25;101778.50;5015435;28;21770;-66
2021/09/29 16:12:55;;;;;;;;;;;;;;;12.64;66.76;101772.25;5027936;28;19917;-66
2021/09/29 16:23:34;;;;;;;;;;;;;;;12.56;68.47;101732.59;5031836;28;19920;-66
2021/09/29 16:31:30;;;;;;;;;;;;;;;12.38;69.41;101726.47;5031305;28;19917;-67
2021/09/29 16:34:45;;;;;;;;;;;;;;;12.31;69.58;101724.44;5057483;28;20397;-68
2021/09/29 16:36:42;;;;;;;;;;;;;;;12.30;69.66;101719.19;5023685;28;19917;-68
2021/09/29 16:39:08;;;;;;;;;;;;;;;12.25;69.92;101711.63;5014481;28;19924;-67